createdAt,value
2022-12-08T00:00:24.866Z,1008.87
2022-12-08T00:01:25.240Z,1008.85
2022-12-08T00:02:23.430Z,1008.86
2022-12-08T00:03:27.066Z,1008.88
2022-12-08T00:04:22.799Z,1008.78
2022-12-08T00:05:22.740Z,1008.81
2022-12-08T00:06:23.068Z,1008.81
2022-12-08T00:07:22.746Z,1008.81
2022-12-08T00:08:22.843Z,1008.80
2022-12-08T00:09:22.735Z,1008.75
2022-12-08T00:10:48.056Z,1008.80
2022-12-08T00:11:23.736Z,1008.86
2022-12-08T00:12:22.696Z,1008.77
2022-12-08T00:13:22.695Z,1008.78
2022-12-08T00:14:22.647Z,1008.77
2022-12-08T00:15:22.645Z,1008.81
2022-12-08T00:16:22.761Z,1008.72
2022-12-08T00:17:22.683Z,1008.75
2022-12-08T00:18:22.613Z,1008.67
2022-12-08T00:19:30.268Z,1008.70
2022-12-08T00:20:22.574Z,1008.64
2022-12-08T00:21:22.561Z,1008.65
2022-12-08T00:22:22.878Z,1008.64
2022-12-08T00:23:22.598Z,1008.63
2022-12-08T00:24:22.572Z,1008.62
2022-12-08T00:25:23.513Z,1008.56
2022-12-08T00:26:22.515Z,1008.65
2022-12-08T00:27:22.493Z,1008.61
2022-12-08T00:28:22.520Z,1008.58
2022-12-08T00:29:22.523Z,1008.61
2022-12-08T00:30:22.442Z,1008.56
2022-12-08T00:31:22.569Z,1008.56
2022-12-08T00:32:22.574Z,1008.56
2022-12-08T00:33:22.422Z,1008.58
2022-12-08T00:34:22.438Z,1008.56
2022-12-08T00:35:22.388Z,1008.52
2022-12-08T00:36:22.423Z,1008.53
2022-12-08T00:37:22.367Z,1008.57
2022-12-08T00:38:22.406Z,1008.58
2022-12-08T00:39:22.393Z,1008.53
2022-12-08T00:40:22.338Z,1008.57
2022-12-08T00:41:22.360Z,1008.53
2022-12-08T00:42:22.281Z,1008.47
2022-12-08T00:43:22.298Z,1008.45
2022-12-08T00:44:22.283Z,1008.44
2022-12-08T00:45:22.270Z,1008.37
2022-12-08T00:46:22.430Z,1008.38
2022-12-08T00:47:24.778Z,1008.38
2022-12-08T00:48:22.233Z,1008.35
2022-12-08T00:49:22.188Z,1008.36
2022-12-08T00:50:22.205Z,1008.33
2022-12-08T00:51:22.194Z,1008.30
2022-12-08T00:52:22.224Z,1008.27
2022-12-08T00:53:22.169Z,1008.31
2022-12-08T00:54:22.162Z,1008.32
2022-12-08T00:55:23.097Z,1008.26
2022-12-08T00:56:22.152Z,1008.20
2022-12-08T00:57:22.102Z,1008.24
2022-12-08T00:58:22.164Z,1008.26
2022-12-08T00:59:22.132Z,1008.24
2022-12-08T01:00:22.072Z,1008.21
2022-12-08T01:01:22.130Z,1008.20
2022-12-08T01:02:22.072Z,1008.21
2022-12-08T01:03:22.123Z,1008.17
2022-12-08T01:04:22.033Z,1008.22
2022-12-08T01:05:21.993Z,1008.19
2022-12-08T01:06:21.985Z,1008.17
2022-12-08T01:07:21.955Z,1008.17
2022-12-08T01:08:22.081Z,1008.19
2022-12-08T01:09:21.958Z,1008.18
2022-12-08T01:10:21.955Z,1008.23
2022-12-08T01:11:21.913Z,1008.22
2022-12-08T01:12:21.972Z,1008.21
2022-12-08T01:13:21.904Z,1008.21
2022-12-08T01:14:21.882Z,1008.13
2022-12-08T01:15:21.847Z,1008.14
2022-12-08T01:16:21.921Z,1008.18
2022-12-08T01:17:21.904Z,1008.24
2022-12-08T01:18:22.849Z,1008.25
2022-12-08T01:19:21.830Z,1008.20
2022-12-08T01:20:21.828Z,1008.20
2022-12-08T01:21:21.837Z,1008.27
2022-12-08T01:22:21.781Z,1008.25
2022-12-08T01:23:21.757Z,1008.28
2022-12-08T01:24:21.794Z,1008.27
2022-12-08T01:25:21.768Z,1008.21
2022-12-08T01:26:21.730Z,1008.27
2022-12-08T01:27:21.726Z,1008.24
2022-12-08T01:28:21.727Z,1008.26
2022-12-08T01:29:21.660Z,1008.24
2022-12-08T01:30:21.703Z,1008.23
2022-12-08T01:31:21.751Z,1008.21
2022-12-08T01:32:21.652Z,1008.24
2022-12-08T01:33:21.646Z,1008.25
2022-12-08T01:34:21.628Z,1008.25
2022-12-08T01:35:21.577Z,1008.30
2022-12-08T01:36:21.589Z,1008.28
2022-12-08T01:37:21.566Z,1008.26
2022-12-08T01:38:21.575Z,1008.29
2022-12-08T01:39:21.592Z,1008.28
2022-12-08T01:40:21.605Z,1008.28
2022-12-08T01:41:21.544Z,1008.30
2022-12-08T01:42:21.582Z,1008.25
2022-12-08T01:43:21.552Z,1008.28
2022-12-08T01:44:21.477Z,1008.27
2022-12-08T01:45:21.484Z,1008.24
2022-12-08T01:46:21.542Z,1008.25
2022-12-08T01:47:21.466Z,1008.21
2022-12-08T01:48:21.505Z,1008.26
2022-12-08T01:49:21.485Z,1008.25
2022-12-08T01:50:21.444Z,1008.28
2022-12-08T01:51:21.430Z,1008.24
2022-12-08T01:52:21.428Z,1008.17
2022-12-08T01:53:21.409Z,1008.17
2022-12-08T01:54:21.365Z,1008.20
2022-12-08T01:55:21.355Z,1008.14
2022-12-08T01:56:21.351Z,1008.08
2022-12-08T01:57:21.311Z,1008.13
2022-12-08T01:58:21.382Z,1008.15
2022-12-08T01:59:21.302Z,1008.11
2022-12-08T02:00:21.269Z,1008.16
2022-12-08T02:01:21.326Z,1008.14
2022-12-08T02:02:21.346Z,1008.16
2022-12-08T02:03:21.291Z,1008.17
2022-12-08T02:04:21.246Z,1008.13
2022-12-08T02:05:21.250Z,1008.09
2022-12-08T02:06:21.213Z,1008.09
2022-12-08T02:07:21.231Z,1008.07
2022-12-08T02:08:21.254Z,1008.16
2022-12-08T02:09:21.212Z,1008.04
2022-12-08T02:10:21.143Z,1008.03
2022-12-08T02:11:21.167Z,1008.04
2022-12-08T02:12:21.155Z,1008.05
2022-12-08T02:13:21.139Z,1008.02
2022-12-08T02:14:21.127Z,1008.01
2022-12-08T02:15:21.100Z,1008.03
2022-12-08T02:16:21.113Z,1008.00
2022-12-08T02:17:21.099Z,1008.03
2022-12-08T02:18:21.086Z,1007.98
2022-12-08T02:19:36.323Z,1008.03
2022-12-08T02:20:22.029Z,1008.06
2022-12-08T02:21:21.031Z,1007.98
2022-12-08T02:22:21.015Z,1007.93
2022-12-08T02:23:21.037Z,1008.02
2022-12-08T02:24:20.939Z,1007.94
2022-12-08T02:25:20.973Z,1007.91
2022-12-08T02:26:21.971Z,1007.89
2022-12-08T02:27:21.015Z,1007.88
2022-12-08T02:28:20.935Z,1007.89
2022-12-08T02:29:20.944Z,1007.84
2022-12-08T02:30:20.894Z,1007.84
2022-12-08T02:31:20.903Z,1007.89
2022-12-08T02:32:20.868Z,1007.84
2022-12-08T02:33:20.871Z,1007.87
2022-12-08T02:34:20.854Z,1007.82
2022-12-08T02:35:20.872Z,1007.75
2022-12-08T02:36:20.843Z,1007.72
2022-12-08T02:37:20.813Z,1007.69
2022-12-08T02:38:20.784Z,1007.64
2022-12-08T02:39:20.846Z,1007.76
2022-12-08T02:40:21.756Z,1007.69
2022-12-08T02:41:20.771Z,1007.66
2022-12-08T02:42:20.785Z,1007.68
2022-12-08T02:43:20.783Z,1007.66
2022-12-08T02:44:20.720Z,1007.69
2022-12-08T02:45:20.752Z,1007.63
2022-12-08T02:46:20.837Z,1007.68
2022-12-08T02:47:20.749Z,1007.65
2022-12-08T02:48:20.703Z,1007.61
2022-12-08T02:49:21.643Z,1007.63
2022-12-08T02:50:20.602Z,1007.59
2022-12-08T02:51:20.629Z,1007.53
2022-12-08T02:52:20.632Z,1007.58
2022-12-08T02:53:20.618Z,1007.53
2022-12-08T02:54:20.624Z,1007.54
2022-12-08T02:55:20.551Z,1007.59
2022-12-08T02:56:20.570Z,1007.51
2022-12-08T02:57:20.557Z,1007.54
2022-12-08T02:58:20.522Z,1007.49
2022-12-08T02:59:20.527Z,1007.47
2022-12-08T03:00:20.540Z,1007.45
2022-12-08T03:01:20.583Z,1007.46
2022-12-08T03:02:20.575Z,1007.45
2022-12-08T03:03:20.502Z,1007.40
2022-12-08T03:04:20.440Z,1007.40
2022-12-08T03:05:20.496Z,1007.37
2022-12-08T03:06:20.421Z,1007.39
2022-12-08T03:07:20.434Z,1007.32
2022-12-08T03:08:20.421Z,1007.30
2022-12-08T03:09:20.437Z,1007.27
2022-12-08T03:10:20.358Z,1007.30
2022-12-08T03:11:20.471Z,1007.27
2022-12-08T03:12:20.337Z,1007.32
2022-12-08T03:13:20.412Z,1007.26
2022-12-08T03:14:20.334Z,1007.28
2022-12-08T03:15:20.359Z,1007.16
2022-12-08T03:16:20.434Z,1007.21
2022-12-08T03:17:20.348Z,1007.22
2022-12-08T03:18:20.263Z,1007.28
2022-12-08T03:19:20.286Z,1007.27
2022-12-08T03:20:20.244Z,1007.12
2022-12-08T03:21:20.226Z,1007.19
2022-12-08T03:22:20.215Z,1007.12
2022-12-08T03:23:20.195Z,1007.16
2022-12-08T03:24:20.166Z,1007.13
2022-12-08T03:25:20.174Z,1007.11
2022-12-08T03:26:20.152Z,1007.09
2022-12-08T03:27:20.182Z,1007.15
2022-12-08T03:28:20.135Z,1007.14
2022-12-08T03:29:20.132Z,1007.06
2022-12-08T03:30:20.140Z,1007.10
2022-12-08T03:31:20.290Z,1007.12
2022-12-08T03:32:20.091Z,1007.12
2022-12-08T03:33:20.080Z,1007.09
2022-12-08T03:34:20.080Z,1007.11
2022-12-08T03:35:20.110Z,1007.08
2022-12-08T03:36:20.061Z,1007.09
2022-12-08T03:37:20.080Z,1007.11
2022-12-08T03:38:20.029Z,1007.05
2022-12-08T03:39:20.039Z,1007.08
2022-12-08T03:40:19.989Z,1007.08
2022-12-08T03:41:20.002Z,1007.13
2022-12-08T03:42:19.941Z,1007.08
2022-12-08T03:43:19.972Z,1007.07
2022-12-08T03:44:19.959Z,1007.06
2022-12-08T03:45:19.920Z,1007.05
2022-12-08T03:46:54.184Z,1007.01
2022-12-08T03:47:54.146Z,1007.04
2022-12-08T03:48:54.108Z,1006.98
2022-12-08T03:49:54.149Z,1006.95
2022-12-08T03:50:54.136Z,1006.97
2022-12-08T03:51:54.133Z,1006.88
2022-12-08T03:52:54.115Z,1006.92
2022-12-08T03:53:54.068Z,1006.94
2022-12-08T03:54:54.043Z,1006.92
2022-12-08T03:55:54.195Z,1006.88
2022-12-08T03:56:54.059Z,1006.88
2022-12-08T03:57:54.009Z,1006.87
2022-12-08T03:58:53.967Z,1006.86
2022-12-08T03:59:54.030Z,1006.87
2022-12-08T04:00:54.016Z,1006.89
2022-12-08T04:01:54.050Z,1006.87
2022-12-08T04:02:54.031Z,1006.87
2022-12-08T04:03:53.951Z,1006.86
2022-12-08T04:04:53.941Z,1006.80
2022-12-08T04:05:53.948Z,1006.81
2022-12-08T04:06:53.933Z,1006.76
2022-12-08T04:07:53.987Z,1006.76
2022-12-08T04:08:53.836Z,1006.72
2022-12-08T04:09:53.907Z,1006.74
2022-12-08T04:10:53.863Z,1006.74
2022-12-08T04:11:53.843Z,1006.66
2022-12-08T04:12:53.832Z,1006.73
2022-12-08T04:13:53.872Z,1006.71
2022-12-08T04:14:53.802Z,1006.71
2022-12-08T04:15:53.928Z,1006.72
2022-12-08T04:16:53.830Z,1006.64
2022-12-08T04:17:53.800Z,1006.64
2022-12-08T04:18:53.774Z,1006.70
2022-12-08T04:19:54.716Z,1006.68
2022-12-08T04:20:53.694Z,1006.63
2022-12-08T04:21:53.703Z,1006.62
2022-12-08T04:22:53.679Z,1006.57
2022-12-08T04:23:57.639Z,1006.67
2022-12-08T04:24:54.651Z,1006.57
2022-12-08T04:25:53.717Z,1006.57
2022-12-08T04:26:53.628Z,1006.57
2022-12-08T04:27:53.613Z,1006.59
2022-12-08T04:28:53.608Z,1006.54
2022-12-08T04:29:53.581Z,1006.53
2022-12-08T04:30:53.596Z,1006.51
2022-12-08T04:31:53.599Z,1006.48
2022-12-08T04:32:53.577Z,1006.48
2022-12-08T04:33:53.579Z,1006.45
2022-12-08T04:34:53.529Z,1006.46
2022-12-08T04:35:53.636Z,1006.48
2022-12-08T04:36:53.534Z,1006.43
2022-12-08T04:37:53.505Z,1006.37
2022-12-08T04:38:54.477Z,1006.38
2022-12-08T04:39:53.514Z,1006.50
2022-12-08T04:40:53.509Z,1006.37
2022-12-08T04:41:53.493Z,1006.40
2022-12-08T04:42:53.436Z,1006.37
2022-12-08T04:43:53.445Z,1006.37
2022-12-08T04:44:53.379Z,1006.37
2022-12-08T04:45:53.486Z,1006.37
2022-12-08T04:46:53.436Z,1006.37
2022-12-08T04:47:53.361Z,1006.40
2022-12-08T04:48:54.357Z,1006.37
2022-12-08T04:49:53.347Z,1006.38
2022-12-08T04:50:53.341Z,1006.37
2022-12-08T04:51:53.367Z,1006.36
2022-12-08T04:52:53.266Z,1006.41
2022-12-08T04:53:53.379Z,1006.33
2022-12-08T04:54:53.240Z,1006.33
2022-12-08T04:55:53.295Z,1006.30
2022-12-08T04:56:53.252Z,1006.26
2022-12-08T04:57:53.261Z,1006.31
2022-12-08T04:58:53.229Z,1006.25
2022-12-08T04:59:53.231Z,1006.28
2022-12-08T05:00:53.353Z,1006.26
2022-12-08T05:01:53.456Z,1006.35
2022-12-08T05:02:53.320Z,1006.30
2022-12-08T05:03:53.241Z,1006.35
2022-12-08T05:04:53.171Z,1006.36
2022-12-08T05:05:53.149Z,1006.33
2022-12-08T05:06:53.124Z,1006.39
2022-12-08T05:07:53.182Z,1006.38
2022-12-08T05:08:53.120Z,1006.40
2022-12-08T05:09:53.128Z,1006.37
2022-12-08T05:10:53.118Z,1006.42
2022-12-08T05:11:53.050Z,1006.31
2022-12-08T05:12:53.050Z,1006.43
2022-12-08T05:13:53.009Z,1006.39
2022-12-08T05:14:53.050Z,1006.35
2022-12-08T05:15:53.148Z,1006.32
2022-12-08T05:16:53.048Z,1006.36
2022-12-08T05:17:53.010Z,1006.28
2022-12-08T05:18:52.938Z,1006.28
2022-12-08T05:19:52.968Z,1006.31
2022-12-08T05:21:00.542Z,1006.30
2022-12-08T05:21:52.935Z,1006.25
2022-12-08T05:22:52.917Z,1006.26
2022-12-08T05:23:53.004Z,1006.32
2022-12-08T05:24:52.865Z,1006.27
2022-12-08T05:25:52.931Z,1006.27
2022-12-08T05:26:52.859Z,1006.25
2022-12-08T05:28:01.671Z,1006.25
2022-12-08T05:28:53.860Z,1006.21
2022-12-08T05:29:52.872Z,1006.26
2022-12-08T05:30:52.823Z,1006.25
2022-12-08T05:31:52.848Z,1006.20
2022-12-08T05:32:52.792Z,1006.26
2022-12-08T05:33:52.742Z,1006.30
2022-12-08T05:34:52.742Z,1006.18
2022-12-08T05:35:52.732Z,1006.20
2022-12-08T05:36:52.732Z,1006.20
2022-12-08T05:37:52.734Z,1006.14
2022-12-08T05:38:52.703Z,1006.23
2022-12-08T05:39:52.713Z,1006.20
2022-12-08T05:40:52.703Z,1006.19
2022-12-08T05:41:52.685Z,1006.19
2022-12-08T05:42:52.701Z,1006.15
2022-12-08T05:43:52.666Z,1006.12
2022-12-08T05:44:52.615Z,1006.12
2022-12-08T05:45:52.758Z,1006.12
2022-12-08T05:46:52.637Z,1006.18
2022-12-08T05:47:52.585Z,1006.09
2022-12-08T05:48:52.569Z,1006.14
2022-12-08T05:49:52.584Z,1006.14
2022-12-08T05:50:52.673Z,1006.10
2022-12-08T05:51:52.517Z,1006.12
2022-12-08T05:52:52.553Z,1006.09
2022-12-08T05:53:52.526Z,1006.07
2022-12-08T05:54:52.503Z,1006.14
2022-12-08T05:55:52.570Z,1006.06
2022-12-08T05:56:52.471Z,1006.07
2022-12-08T05:57:52.464Z,1006.11
2022-12-08T05:58:52.418Z,1006.03
2022-12-08T05:59:52.425Z,1005.99
2022-12-08T06:00:52.512Z,1006.06
2022-12-08T06:01:52.451Z,1006.04
2022-12-08T06:02:52.563Z,1006.07
2022-12-08T06:03:52.387Z,1005.99
2022-12-08T06:04:52.380Z,1006.01
2022-12-08T06:05:52.422Z,1006.02
2022-12-08T06:06:52.324Z,1006.00
2022-12-08T06:07:52.384Z,1006.02
2022-12-08T06:08:52.332Z,1006.02
2022-12-08T06:09:52.322Z,1006.04
2022-12-08T06:10:52.326Z,1005.99
2022-12-08T06:11:52.289Z,1006.02
2022-12-08T06:12:52.327Z,1006.01
2022-12-08T06:13:52.245Z,1005.99
2022-12-08T06:14:52.238Z,1006.04
2022-12-08T06:15:52.250Z,1006.00
2022-12-08T06:16:52.293Z,1006.01
2022-12-08T06:17:52.232Z,1006.00
2022-12-08T06:18:52.188Z,1006.04
2022-12-08T06:19:52.178Z,1006.03
2022-12-08T06:20:52.162Z,1006.02
2022-12-08T06:21:52.178Z,1006.04
2022-12-08T06:22:52.194Z,1006.03
2022-12-08T06:23:52.116Z,1006.05
2022-12-08T06:24:52.126Z,1006.00
2022-12-08T06:25:52.096Z,1006.02
2022-12-08T06:26:52.049Z,1006.05
2022-12-08T06:27:52.089Z,1006.05
2022-12-08T06:28:52.059Z,1006.06
2022-12-08T06:29:52.030Z,1006.11
2022-12-08T06:30:52.038Z,1006.03
2022-12-08T06:31:52.111Z,1006.01
2022-12-08T06:32:51.998Z,1006.06
2022-12-08T06:33:51.976Z,1006.07
2022-12-08T06:34:51.974Z,1006.01
2022-12-08T06:35:51.986Z,1006.05
2022-12-08T06:36:51.943Z,1006.03
2022-12-08T06:37:52.171Z,1006.01
2022-12-08T06:38:51.896Z,1006.05
2022-12-08T06:39:51.964Z,1005.98
2022-12-08T06:40:51.981Z,1005.98
2022-12-08T06:41:51.916Z,1006.06
2022-12-08T06:42:51.892Z,1005.98
2022-12-08T06:43:51.854Z,1005.98
2022-12-08T06:44:51.813Z,1005.98
2022-12-08T06:45:51.878Z,1006.04
2022-12-08T06:46:51.817Z,1006.00
2022-12-08T06:47:51.849Z,1006.00
2022-12-08T06:48:51.784Z,1005.97
2022-12-08T06:49:51.835Z,1006.05
2022-12-08T06:50:51.788Z,1006.01
2022-12-08T06:51:51.811Z,1006.03
2022-12-08T06:53:01.031Z,1006.01
2022-12-08T06:53:52.764Z,1006.03
2022-12-08T06:54:51.750Z,1006.01
2022-12-08T06:55:59.225Z,1006.02
2022-12-08T06:56:52.702Z,1006.04
2022-12-08T06:57:54.058Z,1006.01
2022-12-08T06:58:52.922Z,1006.01
2022-12-08T06:59:51.852Z,1006.04
2022-12-08T07:00:52.237Z,1006.02
2022-12-08T07:01:51.749Z,1006.08
2022-12-08T07:02:55.864Z,1006.07
2022-12-08T07:03:53.172Z,1006.03
2022-12-08T07:04:51.823Z,1006.08
2022-12-08T07:05:51.616Z,1006.08
2022-12-08T07:06:51.695Z,1006.11
2022-12-08T07:07:51.628Z,1006.03
2022-12-08T07:08:51.954Z,1006.11
2022-12-08T07:09:51.647Z,1006.08
2022-12-08T07:10:51.937Z,1006.07
2022-12-08T07:11:51.685Z,1006.13
2022-12-08T07:12:55.810Z,1006.14
2022-12-08T07:13:51.520Z,1006.14
2022-12-08T07:14:51.440Z,1006.12
2022-12-08T07:18:28.691Z,1006.21
2022-12-08T07:22:22.223Z,1006.21
2022-12-08T07:30:11.190Z,1006.24
2022-12-08T07:32:28.875Z,1006.24
2022-12-08T07:36:21.902Z,1006.30
2022-12-08T07:38:20.870Z,1006.24
2022-12-08T07:42:12.257Z,1006.21
2022-12-08T07:42:54.801Z,1006.24
2022-12-08T07:46:14.026Z,1006.23
2022-12-08T07:49:12.125Z,1006.22
2022-12-08T07:51:15.912Z,1006.22
2022-12-08T07:52:25.184Z,1006.18
2022-12-08T07:54:36.747Z,1006.28
2022-12-08T07:55:32.710Z,1006.21
2022-12-08T07:56:32.462Z,1006.26
2022-12-08T07:57:33.199Z,1006.27
2022-12-08T07:58:32.823Z,1006.22
2022-12-08T07:59:33.265Z,1006.23
2022-12-08T08:00:33.904Z,1006.25
2022-12-08T08:01:37.017Z,1006.28
2022-12-08T08:02:33.142Z,1006.26
2022-12-08T08:03:44.766Z,1006.25
2022-12-08T08:04:35.415Z,1006.32
2022-12-08T08:05:37.063Z,1006.33
2022-12-08T08:06:37.317Z,1006.29
2022-12-08T08:07:35.605Z,1006.31
2022-12-08T08:08:33.030Z,1006.34
2022-12-08T08:09:38.938Z,1006.36
2022-12-08T08:10:33.889Z,1006.23
2022-12-08T08:11:32.735Z,1006.28
2022-12-08T08:12:33.131Z,1006.24
2022-12-08T08:13:32.689Z,1006.24
2022-12-08T08:14:32.211Z,1006.23
2022-12-08T08:15:32.340Z,1006.26
2022-12-08T08:16:38.604Z,1006.21
2022-12-08T08:18:55.963Z,1006.26
2022-12-08T08:20:03.930Z,1006.14
2022-12-08T08:20:55.899Z,1006.20
2022-12-08T08:21:55.900Z,1006.12
2022-12-08T08:22:55.869Z,1006.22
2022-12-08T08:23:56.784Z,1006.26
2022-12-08T08:24:55.898Z,1006.26
2022-12-08T08:25:55.850Z,1006.25
2022-12-08T08:26:55.843Z,1006.26
2022-12-08T08:27:55.839Z,1006.24
2022-12-08T08:28:55.875Z,1006.23
2022-12-08T08:29:56.028Z,1006.25
2022-12-08T08:30:55.850Z,1006.19
2022-12-08T08:31:55.793Z,1006.25
2022-12-08T08:32:56.503Z,1006.20
2022-12-08T08:33:55.729Z,1006.22
2022-12-08T08:34:55.729Z,1006.26
2022-12-08T08:35:55.824Z,1006.23
2022-12-08T08:36:56.786Z,1006.16
2022-12-08T08:37:58.576Z,1006.21
2022-12-08T08:38:55.762Z,1006.19
2022-12-08T08:39:55.795Z,1006.21
2022-12-08T08:40:57.610Z,1006.27
2022-12-08T08:41:55.660Z,1006.27
2022-12-08T08:43:03.811Z,1006.25
2022-12-08T08:43:56.106Z,1006.23
2022-12-08T08:45:00.143Z,1006.31
2022-12-08T08:45:55.687Z,1006.32
2022-12-08T08:46:55.872Z,1006.23
2022-12-08T08:52:46.825Z,1006.27
2022-12-08T08:53:35.635Z,1006.26
2022-12-08T08:54:42.933Z,1006.27
2022-12-08T08:55:34.902Z,1006.28
2022-12-08T08:56:34.739Z,1006.27
2022-12-08T08:57:34.647Z,1006.29
2022-12-08T08:58:35.050Z,1006.23
2022-12-08T08:59:34.586Z,1006.21
2022-12-08T09:01:56.173Z,1006.22
2022-12-08T09:02:56.122Z,1006.21
2022-12-08T09:03:56.221Z,1006.26
2022-12-08T09:04:56.101Z,1006.20
2022-12-08T09:05:56.148Z,1006.26
2022-12-08T09:06:56.042Z,1006.27
2022-12-08T09:07:56.079Z,1006.20
2022-12-08T09:08:56.005Z,1006.27
2022-12-08T09:10:01.386Z,1006.23
2022-12-08T09:10:57.008Z,1006.26
2022-12-08T09:11:56.024Z,1006.27
2022-12-08T09:12:56.006Z,1006.24
2022-12-08T09:13:55.972Z,1006.27
2022-12-08T09:14:55.961Z,1006.23
2022-12-08T09:15:55.958Z,1006.28
2022-12-08T09:16:55.949Z,1006.30
2022-12-08T09:17:55.953Z,1006.26
2022-12-08T09:18:55.926Z,1006.26
2022-12-08T09:19:55.912Z,1006.24
2022-12-08T09:20:56.133Z,1006.24
2022-12-08T09:21:55.880Z,1006.28
2022-12-08T09:22:55.897Z,1006.26
2022-12-08T09:23:55.840Z,1006.24
2022-12-08T09:24:55.813Z,1006.29
2022-12-08T09:25:55.805Z,1006.28
2022-12-08T09:26:55.781Z,1006.32
2022-12-08T09:27:55.776Z,1006.23
2022-12-08T09:28:55.816Z,1006.24
2022-12-08T09:29:55.789Z,1006.31
2022-12-08T09:30:55.847Z,1006.23
2022-12-08T09:31:55.866Z,1006.19
2022-12-08T09:32:55.773Z,1006.20
2022-12-08T09:33:55.698Z,1006.26
2022-12-08T09:34:55.705Z,1006.22
2022-12-08T09:35:55.723Z,1006.20
2022-12-08T09:36:55.657Z,1006.20
2022-12-08T09:37:55.678Z,1006.18
2022-12-08T09:38:55.627Z,1006.22
2022-12-08T09:39:55.626Z,1006.22
2022-12-08T09:40:55.652Z,1006.23
2022-12-08T09:41:55.577Z,1006.20
2022-12-08T09:42:55.605Z,1006.17
2022-12-08T09:43:55.854Z,1006.23
2022-12-08T09:44:55.583Z,1006.16
2022-12-08T09:45:55.574Z,1006.13
2022-12-08T09:46:55.621Z,1006.21
2022-12-08T09:47:55.531Z,1006.18
2022-12-08T09:48:55.509Z,1006.20
2022-12-08T09:49:55.500Z,1006.06
2022-12-08T09:50:55.527Z,1006.18
2022-12-08T09:51:55.727Z,1006.14
2022-12-08T09:52:55.465Z,1006.18
2022-12-08T09:53:55.461Z,1006.20
2022-12-08T09:54:55.519Z,1006.15
2022-12-08T09:55:55.425Z,1006.23
2022-12-08T09:56:55.409Z,1006.16
2022-12-08T09:57:56.662Z,1006.16
2022-12-08T09:58:55.382Z,1006.13
2022-12-08T09:59:55.383Z,1006.20
2022-12-08T10:00:55.358Z,1006.11
2022-12-08T10:01:55.481Z,1006.12
2022-12-08T10:02:55.324Z,1006.14
2022-12-08T10:03:55.299Z,1006.12
2022-12-08T10:04:55.448Z,1006.15
2022-12-08T10:05:55.280Z,1006.16
2022-12-08T10:06:55.284Z,1006.15
2022-12-08T10:07:55.364Z,1006.08
2022-12-08T10:08:55.303Z,1006.12
2022-12-08T10:09:55.247Z,1006.15
2022-12-08T10:10:55.259Z,1006.14
2022-12-08T10:11:55.205Z,1006.08
2022-12-08T10:12:55.228Z,1006.13
2022-12-08T10:13:55.311Z,1006.11
2022-12-08T10:14:55.261Z,1006.11
2022-12-08T10:15:55.199Z,1006.06
2022-12-08T10:16:55.176Z,1006.15
2022-12-08T10:17:55.135Z,1006.09
2022-12-08T10:18:55.125Z,1006.14
2022-12-08T10:19:55.094Z,1006.12
2022-12-08T10:20:55.104Z,1006.09
2022-12-08T10:21:55.192Z,1006.08
2022-12-08T10:22:55.074Z,1006.08
2022-12-08T10:23:55.065Z,1006.07
2022-12-08T10:24:55.045Z,1006.10
2022-12-08T10:25:55.002Z,1006.00
2022-12-08T10:26:55.029Z,1006.08
2022-12-08T10:27:54.976Z,1006.04
2022-12-08T10:28:55.000Z,1005.98
2022-12-08T10:29:54.963Z,1005.97
2022-12-08T10:30:55.125Z,1006.01
2022-12-08T10:31:54.997Z,1005.95
2022-12-08T10:32:54.951Z,1005.96
2022-12-08T10:33:54.894Z,1005.95
2022-12-08T10:34:56.507Z,1005.89
2022-12-08T10:35:55.202Z,1005.89
2022-12-08T10:36:54.930Z,1005.94
2022-12-08T10:37:54.905Z,1005.97
2022-12-08T10:38:54.934Z,1005.94
2022-12-08T10:39:54.816Z,1005.84
2022-12-08T10:40:54.864Z,1005.77
2022-12-08T10:41:54.809Z,1005.84
2022-12-08T10:42:54.795Z,1005.88
2022-12-08T10:43:54.795Z,1005.90
2022-12-08T10:44:54.791Z,1005.88
2022-12-08T10:45:54.776Z,1005.87
2022-12-08T10:46:54.901Z,1005.85
2022-12-08T10:47:55.606Z,1005.89
2022-12-08T10:48:54.778Z,1005.84
2022-12-08T10:49:54.728Z,1005.82
2022-12-08T10:50:54.717Z,1005.85
2022-12-08T10:51:54.700Z,1005.83
2022-12-08T10:52:54.662Z,1005.84
2022-12-08T10:53:54.626Z,1005.84
2022-12-08T10:54:54.731Z,1005.79
2022-12-08T10:55:54.685Z,1005.80
2022-12-08T10:56:54.647Z,1005.78
2022-12-08T10:57:54.618Z,1005.78
2022-12-08T10:58:54.789Z,1005.73
2022-12-08T10:59:55.645Z,1005.77
2022-12-08T11:00:54.685Z,1005.71
2022-12-08T11:01:54.849Z,1005.69
2022-12-08T11:02:54.646Z,1005.72
2022-12-08T11:03:54.573Z,1005.68
2022-12-08T11:04:54.553Z,1005.66
2022-12-08T11:05:54.504Z,1005.62
2022-12-08T11:06:54.506Z,1005.65
2022-12-08T11:07:54.518Z,1005.62
2022-12-08T11:08:54.606Z,1005.62
2022-12-08T11:09:54.466Z,1005.62
2022-12-08T11:10:54.585Z,1005.60
2022-12-08T11:11:54.432Z,1005.60
2022-12-08T11:12:54.560Z,1005.57
2022-12-08T11:13:54.403Z,1005.61
2022-12-08T11:14:54.401Z,1005.54
2022-12-08T11:15:54.386Z,1005.58
2022-12-08T11:16:54.407Z,1005.58
2022-12-08T11:17:57.618Z,1005.54
2022-12-08T11:18:54.370Z,1005.58
2022-12-08T11:19:54.391Z,1005.54
2022-12-08T11:20:54.394Z,1005.52
2022-12-08T11:21:54.265Z,1005.47
2022-12-08T11:22:54.369Z,1005.47
2022-12-08T11:23:54.290Z,1005.48
2022-12-08T11:24:54.263Z,1005.43
2022-12-08T11:25:54.277Z,1005.47
2022-12-08T11:26:54.217Z,1005.45
2022-12-08T11:27:54.201Z,1005.42
2022-12-08T11:28:54.224Z,1005.45
2022-12-08T11:29:54.198Z,1005.44
2022-12-08T11:30:54.199Z,1005.42
2022-12-08T11:31:58.262Z,1005.43
2022-12-08T11:32:54.261Z,1005.41
2022-12-08T11:33:54.148Z,1005.38
2022-12-08T11:34:54.149Z,1005.42
2022-12-08T11:35:54.156Z,1005.42
2022-12-08T11:36:54.106Z,1005.38
2022-12-08T11:38:03.076Z,1005.41
2022-12-08T11:38:55.106Z,1005.34
2022-12-08T11:39:54.085Z,1005.34
2022-12-08T11:40:54.077Z,1005.30
2022-12-08T11:41:54.066Z,1005.34
2022-12-08T11:42:54.108Z,1005.34
2022-12-08T11:44:02.056Z,1005.36
2022-12-08T11:44:54.334Z,1005.31
2022-12-08T11:45:54.471Z,1005.28
2022-12-08T11:46:54.096Z,1005.28
2022-12-08T11:47:56.153Z,1005.29
2022-12-08T11:48:54.321Z,1005.27
2022-12-08T11:49:53.967Z,1005.30
2022-12-08T11:50:54.546Z,1005.24
2022-12-08T11:51:54.035Z,1005.18
2022-12-08T11:52:57.553Z,1005.26
2022-12-08T11:53:53.934Z,1005.30
2022-12-08T11:54:53.934Z,1005.29
2022-12-08T11:55:56.013Z,1005.26
2022-12-08T11:56:53.866Z,1005.22
2022-12-08T11:57:54.045Z,1005.22
2022-12-08T11:58:53.901Z,1005.19
2022-12-08T11:59:54.612Z,1005.25
2022-12-08T12:00:53.891Z,1005.23
2022-12-08T12:01:53.841Z,1005.24
2022-12-08T12:02:53.829Z,1005.16
2022-12-08T12:03:53.754Z,1005.20
2022-12-08T12:04:53.742Z,1005.14
2022-12-08T12:06:12.977Z,1005.13
2022-12-08T12:06:55.554Z,1005.10
2022-12-08T12:07:53.820Z,1005.14
2022-12-08T12:08:53.662Z,1005.10
2022-12-08T12:09:53.706Z,1005.15
2022-12-08T12:10:53.656Z,1005.07
2022-12-08T12:11:53.888Z,1005.12
2022-12-08T12:12:53.686Z,1005.05
2022-12-08T12:13:53.624Z,1005.11
2022-12-08T12:14:53.620Z,1005.11
2022-12-08T12:15:53.654Z,1005.11
2022-12-08T12:16:53.623Z,1005.08
2022-12-08T12:17:53.616Z,1005.05
2022-12-08T12:18:53.599Z,1005.14
2022-12-08T12:19:53.559Z,1005.09
2022-12-08T12:20:53.540Z,1005.12
2022-12-08T12:21:53.803Z,1005.11
2022-12-08T12:22:53.647Z,1005.14
2022-12-08T12:23:54.672Z,1005.12
2022-12-08T12:24:53.715Z,1005.12
2022-12-08T12:25:53.523Z,1005.03
2022-12-08T12:26:53.465Z,1005.05
2022-12-08T12:27:57.151Z,1005.11
2022-12-08T12:28:53.437Z,1005.10
2022-12-08T12:29:55.932Z,1005.07
2022-12-08T12:30:54.544Z,1005.06
2022-12-08T12:31:53.483Z,1005.03
2022-12-08T12:32:53.357Z,1005.07
2022-12-08T12:33:53.393Z,1005.07
2022-12-08T12:34:53.434Z,1005.03
2022-12-08T12:35:53.384Z,1005.09
2022-12-08T12:36:53.375Z,1005.06
2022-12-08T12:37:53.329Z,1005.05
2022-12-08T12:38:53.407Z,1005.02
2022-12-08T12:39:53.317Z,1004.96